createdAt,value
2022-07-27T00:00:52.775Z,16.84
2022-07-27T00:03:24.699Z,16.81
2022-07-27T00:05:56.213Z,16.79
2022-07-27T00:08:28.191Z,16.82
2022-07-27T00:10:59.697Z,16.77
2022-07-27T00:13:31.571Z,16.68
2022-07-27T00:16:03.199Z,16.68
2022-07-27T00:18:35.281Z,16.56
2022-07-27T00:21:06.838Z,16.53
2022-07-27T00:23:38.762Z,16.52
2022-07-27T00:26:10.271Z,16.54
2022-07-27T00:28:42.232Z,16.48
2022-07-27T00:31:13.779Z,16.37
2022-07-27T00:33:45.713Z,16.26
2022-07-27T00:36:17.267Z,16.24
2022-07-27T00:38:49.135Z,16.19
2022-07-27T00:41:20.655Z,16.11
2022-07-27T00:43:52.514Z,15.52
2022-07-27T00:46:24.059Z,15.99
2022-07-27T00:48:55.940Z,15.96
2022-07-27T00:51:27.505Z,15.90
2022-07-27T00:53:59.319Z,15.85
2022-07-27T00:56:30.827Z,15.85
2022-07-27T00:59:02.639Z,15.82
2022-07-27T01:01:34.280Z,15.79
2022-07-27T01:04:07.372Z,15.80
2022-07-27T01:06:39.708Z,15.75
2022-07-27T01:09:30.328Z,15.71
2022-07-27T01:12:03.976Z,15.68
2022-07-27T01:14:35.754Z,15.64
2022-07-27T01:17:07.254Z,15.58
2022-07-27T01:19:39.089Z,15.54
2022-07-27T01:22:10.591Z,15.49
2022-07-27T01:24:42.464Z,15.37
2022-07-27T01:27:14.003Z,15.28
2022-07-27T01:29:46.651Z,15.25
2022-07-27T01:32:18.204Z,15.23
2022-07-27T01:34:50.149Z,15.16
2022-07-27T01:37:21.725Z,15.15
2022-07-27T01:39:53.633Z,15.09
2022-07-27T01:42:25.346Z,15.01
2022-07-27T01:44:57.175Z,14.95
2022-07-27T01:47:28.671Z,14.92
2022-07-27T01:50:00.524Z,14.92
2022-07-27T01:52:32.036Z,14.85
2022-07-27T01:55:03.826Z,14.81
2022-07-27T01:57:35.324Z,14.78
2022-07-27T02:00:07.272Z,14.72
2022-07-27T02:02:38.788Z,14.67
2022-07-27T02:05:13.453Z,14.63
2022-07-27T02:07:44.998Z,14.58
2022-07-27T02:10:16.810Z,14.56
2022-07-27T02:12:48.308Z,14.47
2022-07-27T02:15:20.219Z,14.43
2022-07-27T02:17:51.994Z,14.38
2022-07-27T02:20:23.802Z,14.37
2022-07-27T02:22:55.294Z,14.27
2022-07-27T02:25:27.098Z,14.27
2022-07-27T02:27:58.602Z,14.25
2022-07-27T02:30:30.497Z,14.24
2022-07-27T02:33:02.140Z,14.19
2022-07-27T02:35:34.075Z,14.13
2022-07-27T02:38:05.575Z,14.08
2022-07-27T02:40:37.568Z,14.08
2022-07-27T02:43:09.070Z,14.04
2022-07-27T02:45:41.048Z,14.00
2022-07-27T02:48:12.574Z,13.97
2022-07-27T02:50:44.607Z,13.89
2022-07-27T02:53:16.139Z,13.88
2022-07-27T02:55:47.955Z,13.83
2022-07-27T02:58:19.461Z,13.80
2022-07-27T03:00:54.945Z,13.74
2022-07-27T03:03:33.251Z,13.70
2022-07-27T03:06:09.238Z,13.66
2022-07-27T03:08:40.752Z,13.68
2022-07-27T03:11:12.764Z,13.64
2022-07-27T03:13:44.296Z,13.64
2022-07-27T03:16:16.216Z,13.66
2022-07-27T03:18:49.667Z,13.67
2022-07-27T03:21:21.731Z,13.68
2022-07-27T03:23:53.753Z,13.69
2022-07-27T03:26:25.269Z,13.71
2022-07-27T03:28:57.609Z,13.72
2022-07-27T03:31:29.194Z,13.71
2022-07-27T03:34:02.220Z,13.70
2022-07-27T03:36:34.002Z,13.74
2022-07-27T03:39:06.457Z,13.81
2022-07-27T03:41:37.979Z,13.81
2022-07-27T03:44:09.490Z,13.79
2022-07-27T03:46:40.986Z,13.84
2022-07-27T03:49:14.035Z,13.87
2022-07-27T03:51:46.691Z,13.91
2022-07-27T03:54:18.701Z,13.92
2022-07-27T03:56:50.205Z,13.94
2022-07-27T03:59:22.012Z,13.99
2022-07-27T04:01:53.528Z,14.01
2022-07-27T04:04:25.351Z,14.08
2022-07-27T04:06:56.845Z,14.13
2022-07-27T04:09:28.870Z,14.25
2022-07-27T04:12:03.203Z,14.24
2022-07-27T04:14:35.007Z,14.25
2022-07-27T04:17:06.610Z,14.23
2022-07-27T04:19:38.504Z,14.18
2022-07-27T04:22:09.991Z,14.16
2022-07-27T04:24:41.499Z,14.12
2022-07-27T04:27:13.220Z,14.08
2022-07-27T04:29:45.385Z,14.06
2022-07-27T04:32:16.890Z,14.04
2022-07-27T04:34:48.877Z,14.00
2022-07-27T04:37:20.381Z,14.05
2022-07-27T04:39:52.188Z,14.07
2022-07-27T04:42:23.697Z,14.18
2022-07-27T04:44:55.547Z,14.25
2022-07-27T04:47:27.060Z,14.35
2022-07-27T04:49:58.842Z,14.69
2022-07-27T04:52:30.338Z,14.96
2022-07-27T04:55:02.174Z,15.11
2022-07-27T04:57:34.376Z,15.42
2022-07-27T05:00:06.322Z,15.76
2022-07-27T05:02:37.815Z,15.93
2022-07-27T05:05:09.639Z,15.93
2022-07-27T05:07:41.155Z,15.86
2022-07-27T05:10:17.954Z,16.05
2022-07-27T05:12:51.453Z,16.10
2022-07-27T05:15:23.322Z,16.14
2022-07-27T05:17:55.105Z,15.95
2022-07-27T05:20:26.939Z,15.94
2022-07-27T05:22:58.440Z,15.97
2022-07-27T05:25:29.958Z,15.85
2022-07-27T05:28:01.467Z,15.92
2022-07-27T05:30:33.430Z,15.88
2022-07-27T05:33:05.379Z,15.75
2022-07-27T05:35:37.108Z,15.70
2022-07-27T05:38:08.638Z,15.83
2022-07-27T05:40:41.615Z,15.85
2022-07-27T05:43:13.766Z,15.82
2022-07-27T05:45:45.685Z,15.47
2022-07-27T05:48:17.229Z,15.60
2022-07-27T05:50:49.126Z,15.79
2022-07-27T05:53:20.628Z,15.76
2022-07-27T05:55:59.111Z,15.69
2022-07-27T05:58:31.180Z,15.74
2022-07-27T06:01:03.115Z,15.92
2022-07-27T06:03:34.727Z,16.35
2022-07-27T06:06:25.304Z,16.56
2022-07-27T06:08:56.852Z,16.73
2022-07-27T06:11:28.719Z,16.68
2022-07-27T06:14:00.242Z,16.38
2022-07-27T06:16:32.095Z,16.38
2022-07-27T06:19:03.680Z,16.43
2022-07-27T06:21:35.212Z,16.54
2022-07-27T06:24:07.044Z,16.63
2022-07-27T06:26:38.571Z,16.79
2022-07-27T06:29:11.030Z,16.98
2022-07-27T06:34:17.263Z,17.02
2022-07-27T06:36:48.833Z,17.22
2022-07-27T06:39:20.806Z,17.39
2022-07-27T06:41:57.699Z,17.71
2022-07-27T06:44:29.695Z,17.76
2022-07-27T06:47:01.607Z,17.49
2022-07-27T06:49:33.620Z,17.86
2022-07-27T06:52:05.128Z,18.16
2022-07-27T06:54:37.157Z,18.73
2022-07-27T06:57:10.499Z,18.83
2022-07-27T06:59:43.907Z,18.73
2022-07-27T07:02:15.521Z,18.74
2022-07-27T07:04:47.592Z,18.97
2022-07-27T07:07:19.111Z,19.25
2022-07-27T07:09:50.933Z,19.54
2022-07-27T07:12:22.637Z,19.16
2022-07-27T07:14:54.472Z,19.67
2022-07-27T07:17:25.970Z,20.04
2022-07-27T07:19:57.884Z,19.86
2022-07-27T07:22:29.418Z,19.42
2022-07-27T07:25:03.057Z,19.62
2022-07-27T07:27:34.843Z,19.51
2022-07-27T07:30:06.684Z,20.06
2022-07-27T07:32:38.190Z,20.45
2022-07-27T07:35:10.081Z,20.46
2022-07-27T07:37:41.650Z,20.87
2022-07-27T07:40:41.338Z,21.21
2022-07-27T07:43:05.074Z,20.93
2022-07-27T07:45:50.689Z,21.01
2022-07-27T07:48:23.495Z,21.52
2022-07-27T07:50:55.600Z,21.18
2022-07-27T07:53:27.207Z,20.97
2022-07-27T07:56:00.000Z,21.98
2022-07-27T07:58:31.591Z,22.04
2022-07-27T08:01:03.709Z,21.59
2022-07-27T08:03:35.421Z,21.21
2022-07-27T08:06:08.490Z,21.24
2022-07-27T08:08:40.546Z,21.12
2022-07-27T08:11:12.346Z,21.67
2022-07-27T08:13:43.999Z,21.50
2022-07-27T08:16:16.833Z,21.43
2022-07-27T08:18:48.378Z,20.70
2022-07-27T08:21:20.428Z,20.53
2022-07-27T08:23:52.020Z,20.73
2022-07-27T08:26:24.095Z,20.82
2022-07-27T08:28:55.600Z,20.91
2022-07-27T08:31:52.181Z,20.70
2022-07-27T08:34:19.379Z,20.43
2022-07-27T08:36:50.925Z,19.89
2022-07-27T08:40:05.493Z,20.55
2022-07-27T08:42:14.414Z,21.01
2022-07-27T08:44:47.356Z,21.12
2022-07-27T08:47:19.004Z,21.27
2022-07-27T08:49:50.985Z,20.83
2022-07-27T08:52:22.571Z,20.38
2022-07-27T08:54:54.445Z,20.86
2022-07-27T08:57:26.116Z,20.85
2022-07-27T08:59:58.102Z,21.70
2022-07-27T09:02:29.752Z,21.46
2022-07-27T09:05:01.798Z,20.48
2022-07-27T09:07:33.418Z,20.38
2022-07-27T09:10:05.390Z,20.71
2022-07-27T09:12:36.942Z,21.00
2022-07-27T09:15:08.880Z,20.95
2022-07-27T09:17:49.291Z,21.18
2022-07-27T09:20:22.039Z,21.38
2022-07-27T09:22:53.728Z,21.69
2022-07-27T09:25:45.335Z,21.55
2022-07-27T09:28:17.090Z,21.63
2022-07-27T09:30:49.037Z,20.98
2022-07-27T09:33:20.617Z,20.95
2022-07-27T09:35:52.262Z,21.20
2022-07-27T09:38:23.817Z,21.85
2022-07-27T09:40:55.643Z,22.98
2022-07-27T09:46:20.685Z,24.63
2022-07-27T09:48:52.259Z,23.64
2022-07-27T09:52:02.212Z,22.38
2022-07-27T09:54:19.292Z,21.91
2022-07-27T09:56:50.796Z,21.33
2022-07-27T09:59:22.662Z,21.83
2022-07-27T10:01:54.864Z,21.90
2022-07-27T10:04:27.124Z,21.79
2022-07-27T10:07:03.868Z,21.45
2022-07-27T10:09:37.320Z,22.25
2022-07-27T10:12:08.840Z,22.73
2022-07-27T10:14:40.875Z,22.75
2022-07-27T10:17:13.636Z,22.69
2022-07-27T10:19:45.627Z,22.87
2022-07-27T10:22:17.135Z,22.42
2022-07-27T10:24:53.190Z,22.32
2022-07-27T10:27:24.841Z,22.63
2022-07-27T10:29:56.650Z,22.80
2022-07-27T10:32:28.164Z,23.40
2022-07-27T10:35:00.113Z,23.55
2022-07-27T10:37:31.627Z,25.02
2022-07-27T10:40:22.245Z,24.68
2022-07-27T10:42:54.831Z,25.52
2022-07-27T10:45:26.715Z,25.00
2022-07-27T10:48:18.200Z,24.71
2022-07-27T10:50:56.477Z,24.59
2022-07-27T10:53:27.975Z,24.65
2022-07-27T10:56:00.007Z,25.12
2022-07-27T10:58:31.532Z,24.83
2022-07-27T11:01:03.376Z,24.66
2022-07-27T11:03:34.940Z,24.68
2022-07-27T11:06:32.635Z,24.72
2022-07-27T11:09:53.294Z,23.93
2022-07-27T11:11:56.889Z,23.32
2022-07-27T11:14:30.291Z,23.37
2022-07-27T11:17:32.451Z,23.11
2022-07-27T11:19:55.387Z,23.64
2022-07-27T11:22:29.049Z,23.64
2022-07-27T11:25:02.492Z,24.06
2022-07-27T11:27:34.003Z,24.68
2022-07-27T11:30:05.879Z,24.72
2022-07-27T11:32:37.381Z,24.50
2022-07-27T11:35:11.804Z,25.46
2022-07-27T11:37:46.649Z,24.64
2022-07-27T11:40:48.166Z,24.74
2022-07-27T11:43:10.742Z,25.06
2022-07-27T11:45:46.458Z,24.96
2022-07-27T11:48:17.977Z,24.59
2022-07-27T11:50:49.911Z,24.04
2022-07-27T11:53:21.487Z,23.93
2022-07-27T11:55:53.345Z,23.75
2022-07-27T11:58:24.847Z,24.56
2022-07-27T12:00:56.656Z,26.17
2022-07-27T12:03:32.229Z,26.92
2022-07-27T12:06:19.296Z,26.12
2022-07-27T12:08:50.814Z,26.54
2022-07-27T12:11:29.359Z,25.82
2022-07-27T12:14:05.490Z,25.41
2022-07-27T12:16:37.408Z,25.11
2022-07-27T12:19:08.988Z,24.83
2022-07-27T12:21:44.239Z,24.40
2022-07-27T12:24:18.235Z,24.12
2022-07-27T12:26:50.028Z,24.31
2022-07-27T12:29:21.825Z,24.08
2022-07-27T12:31:54.691Z,25.20
2022-07-27T12:34:26.213Z,25.63
2022-07-27T12:36:58.125Z,25.41
2022-07-27T12:39:29.830Z,25.11
2022-07-27T12:42:01.755Z,24.77
2022-07-27T12:44:33.717Z,24.78
2022-07-27T12:47:27.725Z,24.33
2022-07-27T12:49:59.754Z,24.51
2022-07-27T12:52:31.637Z,25.23
2022-07-27T12:55:03.424Z,24.71
2022-07-27T12:57:54.511Z,24.52
2022-07-27T13:00:33.530Z,23.77
2022-07-27T13:03:05.681Z,24.44
2022-07-27T13:05:37.730Z,24.32
2022-07-27T13:08:09.384Z,23.73
2022-07-27T13:10:41.285Z,24.05
2022-07-27T13:13:12.803Z,24.15
2022-07-27T13:15:44.836Z,24.07
2022-07-27T13:18:21.256Z,23.87
2022-07-27T13:20:55.320Z,24.48
2022-07-27T13:23:26.968Z,25.17
2022-07-27T13:25:58.791Z,26.04
2022-07-27T13:28:30.379Z,25.18
2022-07-27T13:31:02.329Z,24.88
2022-07-27T13:33:33.908Z,24.94
2022-07-27T13:36:07.647Z,24.73
2022-07-27T13:38:39.224Z,24.88
2022-07-27T13:41:10.822Z,25.68
2022-07-27T13:43:42.420Z,25.11
2022-07-27T13:46:14.484Z,24.81
2022-07-27T13:48:46.219Z,24.49
2022-07-27T13:51:18.395Z,25.04
2022-07-27T13:53:50.030Z,24.69
2022-07-27T13:56:23.420Z,24.94
2022-07-27T13:58:55.611Z,25.05
2022-07-27T14:01:27.306Z,24.46
2022-07-27T14:03:59.013Z,24.39
2022-07-27T14:06:31.218Z,25.15
2022-07-27T14:09:02.874Z,25.32
2022-07-27T14:11:34.949Z,26.54
2022-07-27T14:14:06.521Z,26.00
2022-07-27T14:16:39.469Z,25.32
2022-07-27T14:19:12.918Z,24.94
2022-07-27T14:21:44.656Z,24.60
2022-07-27T14:24:16.229Z,24.78
2022-07-27T14:26:48.337Z,25.10
2022-07-27T14:31:52.016Z,24.65
2022-07-27T14:34:23.614Z,25.34
2022-07-27T14:36:55.692Z,24.78
2022-07-27T14:39:27.270Z,24.78
2022-07-27T14:41:59.153Z,24.58
2022-07-27T14:44:35.052Z,24.50
2022-07-27T14:47:06.802Z,24.59
2022-07-27T14:49:38.458Z,24.69
2022-07-27T14:52:13.797Z,24.65
2022-07-27T14:54:45.375Z,24.77
2022-07-27T14:57:17.402Z,24.38
2022-07-27T14:59:49.029Z,24.06
2022-07-27T15:02:21.123Z,24.10
2022-07-27T15:04:52.751Z,23.89
2022-07-27T15:07:24.329Z,23.56
2022-07-27T15:09:55.911Z,23.43
2022-07-27T15:12:27.898Z,23.30
2022-07-27T15:14:59.476Z,23.24
2022-07-27T15:17:31.065Z,23.47
2022-07-27T15:20:02.633Z,24.61
2022-07-27T15:22:34.717Z,25.93
2022-07-27T15:25:07.002Z,25.56
2022-07-27T15:27:42.688Z,24.70
2022-07-27T15:30:14.267Z,25.06
2022-07-27T15:32:46.224Z,25.39
2022-07-27T15:35:18.105Z,26.84
2022-07-27T15:37:53.542Z,25.46
2022-07-27T15:40:38.843Z,24.74
2022-07-27T15:43:11.057Z,24.17
2022-07-27T15:45:42.739Z,24.38
2022-07-27T15:48:14.404Z,24.39
2022-07-27T15:50:46.335Z,24.34
2022-07-27T15:53:18.499Z,23.95
2022-07-27T15:55:50.701Z,23.98
2022-07-27T15:58:22.215Z,23.90
2022-07-27T16:00:56.066Z,23.90
2022-07-27T16:03:29.280Z,24.12
2022-07-27T16:06:02.110Z,25.41
2022-07-27T16:08:33.637Z,24.85
2022-07-27T16:11:05.512Z,24.08
2022-07-27T16:13:38.584Z,23.97
2022-07-27T16:16:24.847Z,23.70
2022-07-27T16:18:56.822Z,23.48
2022-07-27T16:21:28.757Z,23.89
2022-07-27T16:24:20.995Z,24.23
2022-07-27T16:26:52.866Z,24.30
2022-07-27T16:29:24.410Z,24.06
2022-07-27T16:31:58.520Z,23.69
2022-07-27T16:34:30.849Z,23.50
2022-07-27T16:37:02.408Z,23.34
2022-07-27T16:39:35.161Z,23.21
2022-07-27T16:42:07.261Z,23.04
2022-07-27T16:44:40.150Z,23.06
2022-07-27T16:47:12.675Z,23.16
2022-07-27T16:49:44.303Z,23.01
2022-07-27T16:52:15.919Z,23.12
2022-07-27T16:54:47.460Z,22.95
2022-07-27T16:57:19.437Z,22.62
2022-07-27T16:59:50.995Z,22.25
2022-07-27T17:02:23.203Z,22.00
2022-07-27T17:04:54.813Z,21.64
2022-07-27T17:07:26.894Z,21.57
2022-07-27T17:09:58.425Z,21.56
2022-07-27T17:12:32.319Z,21.67
2022-07-27T17:15:05.680Z,21.93
2022-07-27T17:17:37.545Z,22.02
2022-07-27T17:20:09.142Z,22.03
2022-07-27T17:22:41.037Z,22.13
2022-07-27T17:25:12.578Z,22.03
2022-07-27T17:27:44.853Z,22.15
2022-07-27T17:30:16.530Z,22.04
2022-07-27T17:32:48.424Z,21.99
2022-07-27T17:35:19.976Z,22.03
2022-07-27T17:38:07.530Z,22.13
2022-07-27T17:40:39.377Z,21.99
2022-07-27T17:43:11.241Z,22.02
2022-07-27T17:45:42.791Z,21.95
2022-07-27T17:48:14.862Z,21.69
2022-07-27T17:50:46.829Z,21.57
2022-07-27T17:53:18.371Z,21.54
2022-07-27T17:55:50.291Z,21.37
2022-07-27T17:58:25.412Z,21.25
2022-07-27T18:00:59.717Z,21.13
2022-07-27T18:03:31.247Z,20.94
2022-07-27T18:06:03.158Z,20.91
2022-07-27T18:08:36.126Z,20.91
2022-07-27T18:11:09.886Z,20.88
2022-07-27T18:13:41.847Z,20.91
2022-07-27T18:16:14.217Z,20.80
2022-07-27T18:18:45.847Z,20.84
2022-07-27T18:21:18.533Z,20.88
2022-07-27T18:23:50.138Z,20.91
2022-07-27T18:26:22.173Z,20.90
2022-07-27T18:28:54.528Z,20.88
2022-07-27T18:31:26.204Z,20.81
2022-07-27T18:33:59.578Z,20.69
2022-07-27T18:36:31.214Z,20.59
2022-07-27T18:39:02.803Z,20.44
2022-07-27T18:41:34.702Z,20.18
2022-07-27T18:44:06.367Z,20.03
2022-07-27T18:46:38.372Z,19.94
2022-07-27T18:49:13.704Z,19.84
2022-07-27T18:51:46.188Z,19.78
2022-07-27T18:54:17.709Z,19.77
2022-07-27T18:56:49.633Z,19.64
2022-07-27T18:59:21.341Z,19.57
2022-07-27T19:01:53.378Z,19.47
2022-07-27T19:04:24.974Z,19.40
2022-07-27T19:06:57.300Z,19.29
2022-07-27T19:09:30.103Z,19.20
2022-07-27T19:12:07.432Z,19.08
2022-07-27T19:14:40.666Z,18.98
2022-07-27T19:17:14.777Z,18.85
2022-07-27T19:19:46.725Z,18.79
2022-07-27T19:22:20.156Z,18.67
2022-07-27T19:24:54.943Z,18.57
2022-07-27T19:27:27.167Z,18.46
2022-07-27T19:29:58.698Z,18.41
2022-07-27T19:32:30.667Z,18.32
2022-07-27T19:35:02.221Z,18.26
2022-07-27T19:37:34.005Z,18.21
2022-07-27T19:40:26.554Z,18.16
2022-07-27T19:42:57.017Z,18.07
2022-07-27T19:45:28.869Z,17.97
2022-07-27T19:48:01.567Z,17.93
2022-07-27T19:50:33.100Z,17.85
2022-07-27T19:53:04.644Z,17.79
2022-07-27T19:55:36.543Z,17.72
2022-07-27T19:58:08.058Z,17.65
2022-07-27T20:00:39.594Z,17.60
2022-07-27T20:03:13.466Z,17.52
2022-07-27T20:05:45.342Z,17.47
2022-07-27T20:08:16.953Z,17.43
2022-07-27T20:10:48.888Z,17.40
2022-07-27T20:13:20.452Z,17.35
2022-07-27T20:15:52.008Z,17.32
2022-07-27T20:18:23.532Z,17.27
2022-07-27T20:20:55.389Z,17.23
2022-07-27T20:23:27.735Z,17.19
2022-07-27T20:25:59.648Z,17.17
2022-07-27T20:28:31.133Z,17.15
2022-07-27T20:31:03.078Z,17.12
2022-07-27T20:33:34.671Z,17.08
2022-07-27T20:36:06.194Z,17.05
2022-07-27T20:38:37.686Z,17.06
2022-07-27T20:41:09.546Z,17.05
2022-07-27T20:43:41.270Z,17.03
2022-07-27T20:46:13.333Z,17.01
2022-07-27T20:48:47.411Z,17.00
2022-07-27T20:51:18.944Z,16.97
2022-07-27T20:53:50.867Z,16.92
2022-07-27T20:56:22.489Z,16.92
2022-07-27T20:58:54.011Z,16.90
2022-07-27T21:01:25.900Z,16.85
2022-07-27T21:03:57.482Z,16.83
2022-07-27T21:06:29.538Z,16.81
2022-07-27T21:09:01.069Z,16.81
2022-07-27T21:11:32.925Z,16.74
2022-07-27T21:14:05.320Z,16.72
2022-07-27T21:16:37.429Z,16.67
2022-07-27T21:19:09.642Z,16.62
2022-07-27T21:21:41.724Z,16.59
2022-07-27T21:24:17.515Z,16.51
2022-07-27T21:26:49.830Z,16.43
2022-07-27T21:29:21.888Z,16.34
2022-07-27T21:31:53.816Z,16.33
2022-07-27T21:34:25.354Z,16.29
2022-07-27T21:36:57.402Z,16.21
2022-07-27T21:39:28.976Z,16.17
2022-07-27T21:42:02.299Z,16.12
2022-07-27T21:44:34.155Z,16.04
2022-07-27T21:47:13.033Z,15.98
2022-07-27T21:49:45.248Z,15.93
2022-07-27T21:52:17.032Z,15.87
2022-07-27T21:54:48.570Z,15.83
2022-07-27T21:57:20.413Z,15.78
2022-07-27T21:59:51.960Z,15.71
2022-07-27T22:02:27.560Z,15.67
2022-07-27T22:05:00.086Z,15.60
2022-07-27T22:07:32.229Z,15.55
2022-07-27T22:10:03.757Z,15.49
2022-07-27T22:12:35.626Z,15.43
2022-07-27T22:15:07.141Z,15.38
2022-07-27T22:17:46.253Z,15.35
2022-07-27T22:20:22.571Z,15.28
2022-07-27T22:22:54.139Z,15.25
2022-07-27T22:25:25.991Z,15.18
2022-07-27T22:27:57.489Z,15.13
2022-07-27T22:30:29.873Z,15.08
2022-07-27T22:33:01.451Z,14.98
2022-07-27T22:35:33.473Z,14.94
2022-07-27T22:38:05.021Z,14.89
2022-07-27T22:40:36.853Z,14.82
2022-07-27T22:43:08.669Z,14.72
2022-07-27T22:45:40.529Z,14.66
2022-07-27T22:48:12.076Z,14.59
2022-07-27T22:50:43.914Z,14.55
2022-07-27T22:53:15.450Z,14.54
2022-07-27T22:55:47.281Z,14.54
2022-07-27T22:58:18.780Z,14.52
2022-07-27T23:00:53.454Z,14.49
2022-07-27T23:03:27.489Z,14.46
2022-07-27T23:05:59.440Z,14.42
2022-07-27T23:08:31.003Z,14.38
2022-07-27T23:11:03.208Z,14.33
2022-07-27T23:13:34.720Z,14.28
2022-07-27T23:16:06.641Z,14.25
2022-07-27T23:18:38.173Z,14.20
2022-07-27T23:21:10.180Z,14.11
2022-07-27T23:23:53.558Z,14.06
2022-07-27T23:26:26.291Z,14.00
2022-07-27T23:28:57.916Z,13.92
2022-07-27T23:31:29.818Z,13.90
2022-07-27T23:34:01.400Z,13.91
2022-07-27T23:36:33.491Z,13.89
2022-07-27T23:39:05.072Z,13.88
2022-07-27T23:41:36.883Z,13.82
2022-07-27T23:44:08.602Z,13.81
2022-07-27T23:46:40.453Z,13.77
2022-07-27T23:49:12.104Z,13.72
2022-07-27T23:51:44.079Z,13.65
2022-07-27T23:54:15.930Z,13.33
2022-07-27T23:56:47.943Z,13.54
2022-07-27T23:59:19.460Z,13.53
